sensor_id;sensor_type;location;lat;lon;timestamp;P1;durP1;ratioP1;P2;durP2;ratioP2
1024;SDS011;501;48.214;11.350;2023-04-28T00:00:54;5.53;;;4.30;;
1024;SDS011;501;48.214;11.350;2023-04-28T00:03:20;4.57;;;4.17;;
1024;SDS011;501;48.214;11.350;2023-04-28T00:05:46;6.17;;;4.50;;
1024;SDS011;501;48.214;11.350;2023-04-28T00:08:13;5.03;;;4.20;;
1024;SDS011;501;48.214;11.350;2023-04-28T00:10:39;4.30;;;3.83;;
1024;SDS011;501;48.214;11.350;2023-04-28T00:13:04;10.80;;;4.37;;
1024;SDS011;501;48.214;11.350;2023-04-28T00:15:30;5.40;;;3.90;;
1024;SDS011;501;48.214;11.350;2023-04-28T00:17:55;6.80;;;4.63;;
1024;SDS011;501;48.214;11.350;2023-04-28T00:20:21;4.83;;;3.87;;
1024;SDS011;501;48.214;11.350;2023-04-28T00:22:47;5.10;;;4.43;;
1024;SDS011;501;48.214;11.350;2023-04-28T00:25:14;7.07;;;5.40;;
1024;SDS011;501;48.214;11.350;2023-04-28T00:27:40;6.03;;;5.43;;
1024;SDS011;501;48.214;11.350;2023-04-28T00:30:05;7.33;;;5.33;;
1024;SDS011;501;48.214;11.350;2023-04-28T00:32:31;6.73;;;6.00;;
1024;SDS011;501;48.214;11.350;2023-04-28T00:34:57;6.70;;;5.63;;
1024;SDS011;501;48.214;11.350;2023-04-28T00:37:22;7.97;;;5.97;;
1024;SDS011;501;48.214;11.350;2023-04-28T00:39:53;8.53;;;6.50;;
1024;SDS011;501;48.214;11.350;2023-04-28T00:42:19;7.40;;;5.80;;
1024;SDS011;501;48.214;11.350;2023-04-28T00:44:44;6.60;;;5.03;;
1024;SDS011;501;48.214;11.350;2023-04-28T00:47:10;6.77;;;6.07;;
1024;SDS011;501;48.214;11.350;2023-04-28T00:49:36;11.60;;;6.37;;
1024;SDS011;501;48.214;11.350;2023-04-28T00:52:03;8.47;;;6.10;;
1024;SDS011;501;48.214;11.350;2023-04-28T00:54:31;6.60;;;5.90;;
1024;SDS011;501;48.214;11.350;2023-04-28T00:56:58;7.70;;;6.53;;
1024;SDS011;501;48.214;11.350;2023-04-28T00:59:23;9.53;;;6.67;;
1024;SDS011;501;48.214;11.350;2023-04-28T01:01:49;9.67;;;6.77;;
1024;SDS011;501;48.214;11.350;2023-04-28T01:04:16;6.37;;;5.47;;
1024;SDS011;501;48.214;11.350;2023-04-28T01:06:44;8.47;;;6.70;;
1024;SDS011;501;48.214;11.350;2023-04-28T01:09:11;7.77;;;6.40;;
1024;SDS011;501;48.214;11.350;2023-04-28T01:11:37;7.53;;;6.53;;
1024;SDS011;501;48.214;11.350;2023-04-28T01:14:02;10.50;;;6.40;;
1024;SDS011;501;48.214;11.350;2023-04-28T01:16:28;9.70;;;8.27;;
1024;SDS011;501;48.214;11.350;2023-04-28T01:18:56;11.40;;;7.37;;
1024;SDS011;501;48.214;11.350;2023-04-28T01:21:31;8.03;;;6.23;;
1024;SDS011;501;48.214;11.350;2023-04-28T01:23:58;8.33;;;6.63;;
1024;SDS011;501;48.214;11.350;2023-04-28T01:26:24;6.97;;;6.10;;
1024;SDS011;501;48.214;11.350;2023-04-28T01:28:50;9.33;;;6.50;;
1024;SDS011;501;48.214;11.350;2023-04-28T01:31:16;7.40;;;6.13;;
1024;SDS011;501;48.214;11.350;2023-04-28T01:33:41;7.77;;;5.43;;
1024;SDS011;501;48.214;11.350;2023-04-28T01:36:07;6.00;;;5.50;;
1024;SDS011;501;48.214;11.350;2023-04-28T01:38:33;6.67;;;5.97;;
1024;SDS011;501;48.214;11.350;2023-04-28T01:40:58;5.40;;;4.90;;
1024;SDS011;501;48.214;11.350;2023-04-28T01:43:26;6.53;;;5.23;;
1024;SDS011;501;48.214;11.350;2023-04-28T01:45:52;6.00;;;5.40;;
1024;SDS011;501;48.214;11.350;2023-04-28T01:48:17;6.87;;;4.87;;
1024;SDS011;501;48.214;11.350;2023-04-28T01:50:43;5.23;;;4.73;;
1024;SDS011;501;48.214;11.350;2023-04-28T01:53:09;5.67;;;5.07;;
1024;SDS011;501;48.214;11.350;2023-04-28T01:55:36;6.40;;;5.10;;
1024;SDS011;501;48.214;11.350;2023-04-28T01:58:02;4.73;;;4.20;;
1024;SDS011;501;48.214;11.350;2023-04-28T02:00:28;5.97;;;5.37;;
1024;SDS011;501;48.214;11.350;2023-04-28T02:02:53;5.00;;;4.50;;
1024;SDS011;501;48.214;11.350;2023-04-28T02:05:19;5.20;;;4.70;;
1024;SDS011;501;48.214;11.350;2023-04-28T02:07:45;7.30;;;5.00;;
1024;SDS011;501;48.214;11.350;2023-04-28T02:10:10;6.57;;;5.23;;
1024;SDS011;501;48.214;11.350;2023-04-28T02:12:36;6.93;;;5.07;;
1024;SDS011;501;48.214;11.350;2023-04-28T02:15:02;5.63;;;4.53;;
1024;SDS011;501;48.214;11.350;2023-04-28T02:17:31;7.73;;;6.07;;
1024;SDS011;501;48.214;11.350;2023-04-28T02:19:56;4.43;;;4.03;;
1024;SDS011;501;48.214;11.350;2023-04-28T02:22:22;6.17;;;5.57;;
1024;SDS011;501;48.214;11.350;2023-04-28T02:24:48;5.50;;;4.97;;
1024;SDS011;501;48.214;11.350;2023-04-28T02:27:14;8.07;;;5.67;;
1024;SDS011;501;48.214;11.350;2023-04-28T02:29:40;5.30;;;4.50;;
1024;SDS011;501;48.214;11.350;2023-04-28T02:32:06;5.77;;;5.00;;
1024;SDS011;501;48.214;11.350;2023-04-28T02:34:32;6.90;;;5.43;;
1024;SDS011;501;48.214;11.350;2023-04-28T02:36:57;7.00;;;5.20;;
1024;SDS011;501;48.214;11.350;2023-04-28T02:39:23;6.13;;;5.17;;
1024;SDS011;501;48.214;11.350;2023-04-28T02:41:51;5.47;;;4.43;;
1024;SDS011;501;48.214;11.350;2023-04-28T02:44:17;6.80;;;5.20;;
1024;SDS011;501;48.214;11.350;2023-04-28T02:46:44;4.60;;;4.20;;
1024;SDS011;501;48.214;11.350;2023-04-28T02:49:09;5.73;;;5.13;;
1024;SDS011;501;48.214;11.350;2023-04-28T02:51:35;5.80;;;5.20;;
1024;SDS011;501;48.214;11.350;2023-04-28T02:54:01;7.73;;;4.67;;
1024;SDS011;501;48.214;11.350;2023-04-28T02:56:26;6.40;;;4.63;;
1024;SDS011;501;48.214;11.350;2023-04-28T02:58:53;6.80;;;4.80;;
1024;SDS011;501;48.214;11.350;2023-04-28T03:01:19;5.87;;;4.30;;
1024;SDS011;501;48.214;11.350;2023-04-28T03:03:45;10.87;;;3.73;;
1024;SDS011;501;48.214;11.350;2023-04-28T03:06:11;5.53;;;3.90;;
1024;SDS011;501;48.214;11.350;2023-04-28T03:08:36;9.63;;;4.37;;
1024;SDS011;501;48.214;11.350;2023-04-28T03:11:02;5.33;;;3.93;;
1024;SDS011;501;48.214;11.350;2023-04-28T03:13:28;5.23;;;3.80;;
1024;SDS011;501;48.214;11.350;2023-04-28T03:15:54;5.40;;;4.60;;
1024;SDS011;501;48.214;11.350;2023-04-28T03:18:20;6.33;;;4.80;;
1024;SDS011;501;48.214;11.350;2023-04-28T03:20:47;6.23;;;4.70;;
1024;SDS011;501;48.214;11.350;2023-04-28T03:23:13;5.03;;;4.53;;
1024;SDS011;501;48.214;11.350;2023-04-28T03:25:39;7.27;;;5.27;;
1024;SDS011;501;48.214;11.350;2023-04-28T03:28:04;8.00;;;4.90;;
1024;SDS011;501;48.214;11.350;2023-04-28T03:30:30;5.13;;;4.27;;
1024;SDS011;501;48.214;11.350;2023-04-28T03:32:56;4.67;;;4.00;;
1024;SDS011;501;48.214;11.350;2023-04-28T03:35:21;8.43;;;5.00;;
1024;SDS011;501;48.214;11.350;2023-04-28T03:37:47;7.20;;;4.53;;
1024;SDS011;501;48.214;11.350;2023-04-28T03:40:13;5.33;;;4.73;;
1024;SDS011;501;48.214;11.350;2023-04-28T03:42:39;7.07;;;4.73;;
1024;SDS011;501;48.214;11.350;2023-04-28T03:45:05;5.97;;;4.40;;
1024;SDS011;501;48.214;11.350;2023-04-28T03:47:31;6.80;;;5.00;;
1024;SDS011;501;48.214;11.350;2023-04-28T03:49:57;6.10;;;5.50;;
1024;SDS011;501;48.214;11.350;2023-04-28T03:52:23;7.40;;;5.87;;
1024;SDS011;501;48.214;11.350;2023-04-28T03:54:50;7.47;;;5.10;;
1024;SDS011;501;48.214;11.350;2023-04-28T03:57:15;7.97;;;6.43;;
1024;SDS011;501;48.214;11.350;2023-04-28T03:59:41;8.70;;;6.80;;
1024;SDS011;501;48.214;11.350;2023-04-28T04:02:06;9.03;;;6.83;;
1024;SDS011;501;48.214;11.350;2023-04-28T04:04:32;6.97;;;6.10;;
1024;SDS011;501;48.214;11.350;2023-04-28T04:06:58;7.63;;;6.70;;
1024;SDS011;501;48.214;11.350;2023-04-28T04:09:23;7.10;;;6.40;;
1024;SDS011;501;48.214;11.350;2023-04-28T04:11:49;13.00;;;8.10;;
1024;SDS011;501;48.214;11.350;2023-04-28T04:14:15;10.07;;;7.63;;
1024;SDS011;501;48.214;11.350;2023-04-28T04:16:41;8.80;;;6.63;;
1024;SDS011;501;48.214;11.350;2023-04-28T04:19:06;9.17;;;7.57;;
1024;SDS011;501;48.214;11.350;2023-04-28T04:21:32;7.90;;;6.23;;
1024;SDS011;501;48.214;11.350;2023-04-28T04:23:58;7.90;;;7.10;;
1024;SDS011;501;48.214;11.350;2023-04-28T04:26:23;11.33;;;7.57;;
1024;SDS011;501;48.214;11.350;2023-04-28T04:28:49;7.97;;;7.17;;
1024;SDS011;501;48.214;11.350;2023-04-28T04:31:15;9.20;;;6.87;;
1024;SDS011;501;48.214;11.350;2023-04-28T04:33:42;8.23;;;7.00;;
1024;SDS011;501;48.214;11.350;2023-04-28T04:36:07;7.33;;;6.63;;
1024;SDS011;501;48.214;11.350;2023-04-28T04:38:33;9.10;;;6.87;;
1024;SDS011;501;48.214;11.350;2023-04-28T04:40:59;9.00;;;6.83;;
1024;SDS011;501;48.214;11.350;2023-04-28T04:43:24;8.57;;;6.97;;
1024;SDS011;501;48.214;11.350;2023-04-28T04:45:53;8.67;;;7.20;;
1024;SDS011;501;48.214;11.350;2023-04-28T04:48:18;7.83;;;6.57;;
1024;SDS011;501;48.214;11.350;2023-04-28T04:50:44;9.40;;;6.87;;
1024;SDS011;501;48.214;11.350;2023-04-28T04:53:10;8.53;;;6.10;;
1024;SDS011;501;48.214;11.350;2023-04-28T04:55:35;8.27;;;6.87;;
1024;SDS011;501;48.214;11.350;2023-04-28T04:58:01;10.20;;;6.30;;
1024;SDS011;501;48.214;11.350;2023-04-28T05:00:27;5.90;;;5.30;;
1024;SDS011;501;48.214;11.350;2023-04-28T05:02:53;6.40;;;5.30;;
1024;SDS011;501;48.214;11.350;2023-04-28T05:05:18;7.10;;;5.93;;
1024;SDS011;501;48.214;11.350;2023-04-28T05:07:44;8.67;;;5.97;;
1024;SDS011;501;48.214;11.350;2023-04-28T05:10:10;6.63;;;5.77;;
1024;SDS011;501;48.214;11.350;2023-04-28T05:12:36;6.40;;;5.10;;
1024;SDS011;501;48.214;11.350;2023-04-28T05:15:04;6.47;;;5.57;;
1024;SDS011;501;48.214;11.350;2023-04-28T05:17:33;5.83;;;5.10;;
1024;SDS011;501;48.214;11.350;2023-04-28T05:19:58;9.83;;;5.37;;
1024;SDS011;501;48.214;11.350;2023-04-28T05:22:24;7.13;;;5.17;;
1024;SDS011;501;48.214;11.350;2023-04-28T05:24:50;9.63;;;5.70;;
1024;SDS011;501;48.214;11.350;2023-04-28T05:27:17;8.03;;;5.90;;
1024;SDS011;501;48.214;11.350;2023-04-28T05:29:43;6.93;;;5.23;;
1024;SDS011;501;48.214;11.350;2023-04-28T05:32:08;8.10;;;5.30;;
1024;SDS011;501;48.214;11.350;2023-04-28T05:34:34;5.00;;;4.50;;
1024;SDS011;501;48.214;11.350;2023-04-28T05:37:00;5.50;;;4.73;;
1024;SDS011;501;48.214;11.350;2023-04-28T05:39:26;7.87;;;5.40;;
1024;SDS011;501;48.214;11.350;2023-04-28T05:41:51;6.27;;;5.23;;
1024;SDS011;501;48.214;11.350;2023-04-28T05:44:17;5.53;;;4.90;;
1024;SDS011;501;48.214;11.350;2023-04-28T05:46:42;6.70;;;5.43;;
1024;SDS011;501;48.214;11.350;2023-04-28T05:49:08;6.57;;;5.10;;
1024;SDS011;501;48.214;11.350;2023-04-28T05:51:34;7.17;;;5.27;;
1024;SDS011;501;48.214;11.350;2023-04-28T05:54:00;6.37;;;4.87;;
1024;SDS011;501;48.214;11.350;2023-04-28T05:56:26;8.23;;;5.40;;
1024;SDS011;501;48.214;11.350;2023-04-28T05:58:51;4.30;;;3.77;;
1024;SDS011;501;48.214;11.350;2023-04-28T06:01:17;6.90;;;3.67;;
1024;SDS011;501;48.214;11.350;2023-04-28T06:03:43;4.97;;;3.90;;
1024;SDS011;501;48.214;11.350;2023-04-28T06:06:09;4.40;;;3.70;;
1024;SDS011;501;48.214;11.350;2023-04-28T06:08:35;4.10;;;3.70;;
1024;SDS011;501;48.214;11.350;2023-04-28T06:11:01;4.07;;;3.67;;
1024;SDS011;501;48.214;11.350;2023-04-28T06:13:26;3.93;;;3.50;;
1024;SDS011;501;48.214;11.350;2023-04-28T06:15:52;4.00;;;3.57;;
1024;SDS011;501;48.214;11.350;2023-04-28T06:18:18;3.40;;;3.10;;
1024;SDS011;501;48.214;11.350;2023-04-28T06:20:43;3.77;;;3.47;;
1024;SDS011;501;48.214;11.350;2023-04-28T06:23:09;2.90;;;2.70;;
1024;SDS011;501;48.214;11.350;2023-04-28T06:25:35;4.47;;;3.20;;
1024;SDS011;501;48.214;11.350;2023-04-28T06:28:01;3.70;;;3.37;;
1024;SDS011;501;48.214;11.350;2023-04-28T06:30:27;3.87;;;3.33;;
1024;SDS011;501;48.214;11.350;2023-04-28T06:32:53;4.57;;;3.43;;
1024;SDS011;501;48.214;11.350;2023-04-28T06:35:21;3.40;;;3.10;;
1024;SDS011;501;48.214;11.350;2023-04-28T06:37:47;5.00;;;3.23;;
1024;SDS011;501;48.214;11.350;2023-04-28T06:40:13;2.93;;;2.63;;
1024;SDS011;501;48.214;11.350;2023-04-28T06:42:39;3.20;;;2.90;;
1024;SDS011;501;48.214;11.350;2023-04-28T06:45:05;10.93;;;3.20;;
1024;SDS011;501;48.214;11.350;2023-04-28T06:47:31;5.80;;;3.50;;
1024;SDS011;501;48.214;11.350;2023-04-28T06:49:56;6.77;;;3.67;;
1024;SDS011;501;48.214;11.350;2023-04-28T06:52:22;4.57;;;4.03;;
1024;SDS011;501;48.214;11.350;2023-04-28T06:54:48;4.13;;;3.30;;
1024;SDS011;501;48.214;11.350;2023-04-28T06:57:15;3.30;;;3.00;;
1024;SDS011;501;48.214;11.350;2023-04-28T06:59:41;3.40;;;3.03;;
1024;SDS011;501;48.214;11.350;2023-04-28T07:02:08;3.77;;;2.90;;
1024;SDS011;501;48.214;11.350;2023-04-28T07:04:34;2.83;;;2.43;;
1024;SDS011;501;48.214;11.350;2023-04-28T07:07:00;3.27;;;2.97;;
1024;SDS011;501;48.214;11.350;2023-04-28T07:09:26;3.90;;;3.30;;
1024;SDS011;501;48.214;11.350;2023-04-28T07:11:52;2.27;;;2.10;;
1024;SDS011;501;48.214;11.350;2023-04-28T07:14:17;2.50;;;2.30;;
1024;SDS011;501;48.214;11.350;2023-04-28T07:16:43;2.13;;;1.90;;
1024;SDS011;501;48.214;11.350;2023-04-28T07:19:09;2.30;;;2.07;;
1024;SDS011;501;48.214;11.350;2023-04-28T07:21:34;1.97;;;1.60;;
1024;SDS011;501;48.214;11.350;2023-04-28T07:24:00;1.10;;;1.00;;
1024;SDS011;501;48.214;11.350;2023-04-28T07:26:26;1.90;;;1.23;;
1024;SDS011;501;48.214;11.350;2023-04-28T07:28:51;2.20;;;1.10;;
1024;SDS011;501;48.214;11.350;2023-04-28T07:31:17;1.23;;;1.13;;
1024;SDS011;501;48.214;11.350;2023-04-28T07:33:42;1.20;;;0.80;;
1024;SDS011;501;48.214;11.350;2023-04-28T07:36:08;1.10;;;1.10;;
1024;SDS011;501;48.214;11.350;2023-04-28T07:38:34;0.90;;;0.90;;
1024;SDS011;501;48.214;11.350;2023-04-28T07:41:01;1.90;;;0.83;;
1024;SDS011;501;48.214;11.350;2023-04-28T07:43:27;0.93;;;0.80;;
1024;SDS011;501;48.214;11.350;2023-04-28T07:45:53;2.87;;;0.97;;
1024;SDS011;501;48.214;11.350;2023-04-28T07:48:19;0.80;;;0.80;;
1024;SDS011;501;48.214;11.350;2023-04-28T07:50:45;1.63;;;0.83;;
1024;SDS011;501;48.214;11.350;2023-04-28T07:53:10;1.60;;;1.20;;
1024;SDS011;501;48.214;11.350;2023-04-28T07:55:36;1.00;;;0.77;;
1024;SDS011;501;48.214;11.350;2023-04-28T07:58:02;1.30;;;1.20;;
1024;SDS011;501;48.214;11.350;2023-04-28T08:00:27;3.30;;;1.53;;
1024;SDS011;501;48.214;11.350;2023-04-28T08:02:53;0.87;;;0.87;;
1024;SDS011;501;48.214;11.350;2023-04-28T08:05:19;1.60;;;1.23;;
1024;SDS011;501;48.214;11.350;2023-04-28T08:07:44;1.20;;;1.00;;
1024;SDS011;501;48.214;11.350;2023-04-28T08:10:10;1.83;;;0.93;;
1024;SDS011;501;48.214;11.350;2023-04-28T08:12:36;1.17;;;1.07;;
1024;SDS011;501;48.214;11.350;2023-04-28T08:15:02;1.17;;;1.07;;
1024;SDS011;501;48.214;11.350;2023-04-28T08:17:28;1.50;;;1.13;;
1024;SDS011;501;48.214;11.350;2023-04-28T08:19:53;1.33;;;1.23;;
1024;SDS011;501;48.214;11.350;2023-04-28T08:22:19;3.20;;;1.10;;
1024;SDS011;501;48.214;11.350;2023-04-28T08:24:45;1.10;;;1.00;;
1024;SDS011;501;48.214;11.350;2023-04-28T08:27:10;2.50;;;1.53;;
1024;SDS011;501;48.214;11.350;2023-04-28T08:29:36;1.27;;;1.17;;
1024;SDS011;501;48.214;11.350;2023-04-28T08:32:02;1.57;;;1.10;;
1024;SDS011;501;48.214;11.350;2023-04-28T08:34:30;1.13;;;1.13;;
1024;SDS011;501;48.214;11.350;2023-04-28T08:36:58;1.30;;;1.20;;
1024;SDS011;501;48.214;11.350;2023-04-28T08:39:24;1.30;;;1.20;;
1024;SDS011;501;48.214;11.350;2023-04-28T08:41:51;1.83;;;1.37;;
1024;SDS011;501;48.214;11.350;2023-04-28T08:44:17;1.93;;;1.23;;
1024;SDS011;501;48.214;11.350;2023-04-28T08:46:44;1.63;;;1.53;;
1024;SDS011;501;48.214;11.350;2023-04-28T08:49:14;1.63;;;1.40;;
1024;SDS011;501;48.214;11.350;2023-04-28T08:51:44;2.70;;;1.30;;
1024;SDS011;501;48.214;11.350;2023-04-28T08:54:14;1.40;;;1.30;;
1024;SDS011;501;48.214;11.350;2023-04-28T08:56:40;2.03;;;1.90;;
1024;SDS011;501;48.214;11.350;2023-04-28T08:59:09;1.93;;;1.60;;
1024;SDS011;501;48.214;11.350;2023-04-28T09:01:37;1.90;;;1.40;;
1024;SDS011;501;48.214;11.350;2023-04-28T09:04:03;1.50;;;1.40;;
1024;SDS011;501;48.214;11.350;2023-04-28T09:06:36;1.37;;;1.20;;
1024;SDS011;501;48.214;11.350;2023-04-28T09:11:50;1.40;;;1.30;;
1024;SDS011;501;48.214;11.350;2023-04-28T09:14:16;1.37;;;1.10;;
1024;SDS011;501;48.214;11.350;2023-04-28T09:16:41;1.43;;;1.30;;
1024;SDS011;501;48.214;11.350;2023-04-28T09:19:07;1.13;;;1.03;;
1024;SDS011;501;48.214;11.350;2023-04-28T09:21:44;2.10;;;1.50;;
1024;SDS011;501;48.214;11.350;2023-04-28T09:26:59;1.27;;;1.17;;
1024;SDS011;501;48.214;11.350;2023-04-28T09:29:26;3.40;;;1.67;;
1024;SDS011;501;48.214;11.350;2023-04-28T09:31:52;2.90;;;2.27;;
1024;SDS011;501;48.214;11.350;2023-04-28T09:34:19;1.67;;;1.43;;
1024;SDS011;501;48.214;11.350;2023-04-28T09:36:46;2.70;;;1.63;;
1024;SDS011;501;48.214;11.350;2023-04-28T09:39:11;1.73;;;1.27;;
1024;SDS011;501;48.214;11.350;2023-04-28T09:41:41;1.60;;;1.13;;
1024;SDS011;501;48.214;11.350;2023-04-28T09:46:43;1.30;;;1.20;;
1024;SDS011;501;48.214;11.350;2023-04-28T09:49:10;1.50;;;1.40;;
1024;SDS011;501;48.214;11.350;2023-04-28T09:51:37;1.40;;;1.20;;
1024;SDS011;501;48.214;11.350;2023-04-28T09:54:03;1.10;;;1.03;;
1024;SDS011;501;48.214;11.350;2023-04-28T09:56:30;1.43;;;1.10;;
1024;SDS011;501;48.214;11.350;2023-04-28T09:58:57;1.50;;;1.03;;
1024;SDS011;501;48.214;11.350;2023-04-28T10:01:24;2.40;;;1.27;;
1024;SDS011;501;48.214;11.350;2023-04-28T10:03:51;0.90;;;0.90;;
1024;SDS011;501;48.214;11.350;2023-04-28T10:06:18;1.77;;;1.30;;
1024;SDS011;501;48.214;11.350;2023-04-28T10:08:44;2.90;;;0.97;;
1024;SDS011;501;48.214;11.350;2023-04-28T10:11:12;1.40;;;1.20;;
1024;SDS011;501;48.214;11.350;2023-04-28T10:13:40;1.83;;;1.00;;
1024;SDS011;501;48.214;11.350;2023-04-28T10:16:07;3.50;;;1.10;;
1024;SDS011;501;48.214;11.350;2023-04-28T10:18:34;1.27;;;0.80;;
1024;SDS011;501;48.214;11.350;2023-04-28T10:21:00;1.27;;;1.17;;
1024;SDS011;501;48.214;11.350;2023-04-28T10:26:08;0.90;;;0.90;;
1024;SDS011;501;48.214;11.350;2023-04-28T10:28:36;0.77;;;0.50;;
1024;SDS011;501;48.214;11.350;2023-04-28T10:31:12;1.77;;;0.90;;
1024;SDS011;501;48.214;11.350;2023-04-28T10:33:42;1.10;;;1.10;;
1024;SDS011;501;48.214;11.350;2023-04-28T10:36:08;1.10;;;1.00;;
1024;SDS011;501;48.214;11.350;2023-04-28T10:38:35;0.77;;;0.77;;
1024;SDS011;501;48.214;11.350;2023-04-28T10:41:32;1.30;;;1.00;;
1024;SDS011;501;48.214;11.350;2023-04-28T10:43:58;2.37;;;1.20;;
1024;SDS011;501;48.214;11.350;2023-04-28T10:46:23;1.20;;;1.10;;
1024;SDS011;501;48.214;11.350;2023-04-28T10:56:21;1.20;;;1.10;;
1024;SDS011;501;48.214;11.350;2023-04-28T11:03:49;0.97;;;0.83;;
1024;SDS011;501;48.214;11.350;2023-04-28T11:08:56;1.23;;;1.13;;
1024;SDS011;501;48.214;11.350;2023-04-28T11:11:30;1.23;;;0.80;;
1024;SDS011;501;48.214;11.350;2023-04-28T11:16:52;0.90;;;0.90;;
1024;SDS011;501;48.214;11.350;2023-04-28T11:19:27;2.90;;;1.13;;
1024;SDS011;501;48.214;11.350;2023-04-28T11:21:58;1.30;;;1.10;;
1024;SDS011;501;48.214;11.350;2023-04-28T11:24:26;3.03;;;1.57;;
1024;SDS011;501;48.214;11.350;2023-04-28T11:26:55;1.50;;;1.40;;
1024;SDS011;501;48.214;11.350;2023-04-28T11:29:31;4.80;;;1.70;;
1024;SDS011;501;48.214;11.350;2023-04-28T11:32:05;6.40;;;2.10;;
1024;SDS011;501;48.214;11.350;2023-04-28T11:34:32;1.47;;;1.03;;
1024;SDS011;501;48.214;11.350;2023-04-28T11:36:59;2.00;;;1.30;;
1024;SDS011;501;48.214;11.350;2023-04-28T11:39:31;1.90;;;1.67;;
1024;SDS011;501;48.214;11.350;2023-04-28T11:41:58;1.40;;;1.30;;
1024;SDS011;501;48.214;11.350;2023-04-28T11:44:26;1.50;;;1.40;;
1024;SDS011;501;48.214;11.350;2023-04-28T11:46:54;2.17;;;1.40;;
1024;SDS011;501;48.214;11.350;2023-04-28T11:49:25;1.43;;;1.33;;
1024;SDS011;501;48.214;11.350;2023-04-28T11:52:03;3.80;;;1.47;;
1024;SDS011;501;48.214;11.350;2023-04-28T11:54:30;1.37;;;1.07;;
1024;SDS011;501;48.214;11.350;2023-04-28T11:56:56;2.93;;;1.40;;
1024;SDS011;501;48.214;11.350;2023-04-28T11:59:27;1.33;;;1.23;;
1024;SDS011;501;48.214;11.350;2023-04-28T12:04:27;1.70;;;1.40;;
1024;SDS011;501;48.214;11.350;2023-04-28T12:12:06;3.90;;;2.10;;
1024;SDS011;501;48.214;11.350;2023-04-28T12:17:32;1.60;;;1.50;;
1024;SDS011;501;48.214;11.350;2023-04-28T12:20:00;2.70;;;1.73;;
1024;SDS011;501;48.214;11.350;2023-04-28T12:22:28;1.87;;;1.50;;
1024;SDS011;501;48.214;11.350;2023-04-28T12:27:40;1.63;;;1.53;;
1024;SDS011;501;48.214;11.350;2023-04-28T12:32:44;1.53;;;1.43;;
1024;SDS011;501;48.214;11.350;2023-04-28T12:35:10;3.53;;;1.63;;
1024;SDS011;501;48.214;11.350;2023-04-28T12:37:36;2.30;;;1.37;;
1024;SDS011;501;48.214;11.350;2023-04-28T12:40:04;3.07;;;1.80;;
1024;SDS011;501;48.214;11.350;2023-04-28T12:42:30;1.47;;;1.37;;
1024;SDS011;501;48.214;11.350;2023-04-28T12:44:56;2.07;;;1.73;;
1024;SDS011;501;48.214;11.350;2023-04-28T12:47:21;1.30;;;1.20;;
1024;SDS011;501;48.214;11.350;2023-04-28T12:49:47;1.47;;;1.37;;
1024;SDS011;501;48.214;11.350;2023-04-28T12:52:15;1.83;;;1.40;;
1024;SDS011;501;48.214;11.350;2023-04-28T12:54:41;1.53;;;1.30;;
1024;SDS011;501;48.214;11.350;2023-04-28T12:57:11;3.10;;;1.40;;
1024;SDS011;501;48.214;11.350;2023-04-28T12:59:37;2.07;;;1.60;;
1024;SDS011;501;48.214;11.350;2023-04-28T13:02:03;1.60;;;1.40;;
1024;SDS011;501;48.214;11.350;2023-04-28T13:04:29;1.43;;;1.33;;
1024;SDS011;501;48.214;11.350;2023-04-28T13:06:56;1.60;;;1.30;;
1024;SDS011;501;48.214;11.350;2023-04-28T13:09:23;1.60;;;1.50;;
1024;SDS011;501;48.214;11.350;2023-04-28T13:11:49;1.30;;;1.20;;
1024;SDS011;501;48.214;11.350;2023-04-28T13:14:14;1.50;;;1.10;;
1024;SDS011;501;48.214;11.350;2023-04-28T13:16:40;1.20;;;0.83;;
1024;SDS011;501;48.214;11.350;2023-04-28T13:19:06;1.10;;;1.10;;
1024;SDS011;501;48.214;11.350;2023-04-28T13:21:34;1.13;;;1.10;;
1024;SDS011;501;48.214;11.350;2023-04-28T13:24:01;1.57;;;1.47;;
1024;SDS011;501;48.214;11.350;2023-04-28T13:26:28;2.50;;;1.40;;
1024;SDS011;501;48.214;11.350;2023-04-28T13:28:54;2.30;;;1.40;;
1024;SDS011;501;48.214;11.350;2023-04-28T13:31:20;1.30;;;1.20;;
1024;SDS011;501;48.214;11.350;2023-04-28T13:33:45;1.03;;;1.00;;
1024;SDS011;501;48.214;11.350;2023-04-28T13:36:11;1.17;;;1.07;;
1024;SDS011;501;48.214;11.350;2023-04-28T13:38:37;1.67;;;1.07;;
1024;SDS011;501;48.214;11.350;2023-04-28T13:41:03;0.70;;;0.70;;
1024;SDS011;501;48.214;11.350;2023-04-28T13:43:29;1.17;;;1.07;;
1024;SDS011;501;48.214;11.350;2023-04-28T13:45:57;0.80;;;0.80;;
1024;SDS011;501;48.214;11.350;2023-04-28T13:48:23;1.10;;;1.00;;
1024;SDS011;501;48.214;11.350;2023-04-28T13:50:51;1.50;;;1.07;;
1024;SDS011;501;48.214;11.350;2023-04-28T13:53:17;0.80;;;0.80;;
1024;SDS011;501;48.214;11.350;2023-04-28T13:55:43;1.00;;;1.00;;
1024;SDS011;501;48.214;11.350;2023-04-28T13:58:09;1.50;;;0.83;;
1024;SDS011;501;48.214;11.350;2023-04-28T14:00:35;1.67;;;0.83;;
1024;SDS011;501;48.214;11.350;2023-04-28T14:03:01;0.50;;;0.43;;
1024;SDS011;501;48.214;11.350;2023-04-28T14:05:27;0.83;;;0.80;;
1024;SDS011;501;48.214;11.350;2023-04-28T14:07:53;0.63;;;0.63;;
1024;SDS011;501;48.214;11.350;2023-04-28T14:10:19;0.90;;;0.70;;
1024;SDS011;501;48.214;11.350;2023-04-28T14:12:45;0.90;;;0.90;;
1024;SDS011;501;48.214;11.350;2023-04-28T14:15:11;0.60;;;0.60;;
1024;SDS011;501;48.214;11.350;2023-04-28T14:17:37;1.13;;;0.60;;
1024;SDS011;501;48.214;11.350;2023-04-28T14:20:03;0.70;;;0.60;;
1024;SDS011;501;48.214;11.350;2023-04-28T14:22:29;1.67;;;0.83;;
1024;SDS011;501;48.214;11.350;2023-04-28T14:24:54;0.60;;;0.60;;
1024;SDS011;501;48.214;11.350;2023-04-28T14:27:20;0.50;;;0.50;;
1024;SDS011;501;48.214;11.350;2023-04-28T14:29:46;0.70;;;0.70;;
1024;SDS011;501;48.214;11.350;2023-04-28T14:32:15;1.30;;;0.93;;
1024;SDS011;501;48.214;11.350;2023-04-28T14:34:45;0.97;;;0.87;;
1024;SDS011;501;48.214;11.350;2023-04-28T14:37:12;1.93;;;1.20;;
1024;SDS011;501;48.214;11.350;2023-04-28T14:39:38;0.67;;;0.67;;
1024;SDS011;501;48.214;11.350;2023-04-28T14:42:03;1.97;;;0.93;;
1024;SDS011;501;48.214;11.350;2023-04-28T14:44:30;1.30;;;1.07;;
1024;SDS011;501;48.214;11.350;2023-04-28T14:46:56;1.60;;;1.50;;
1024;SDS011;501;48.214;11.350;2023-04-28T14:49:21;1.43;;;1.33;;
1024;SDS011;501;48.214;11.350;2023-04-28T14:51:48;1.70;;;1.43;;
1024;SDS011;501;48.214;11.350;2023-04-28T14:54:14;0.90;;;0.70;;
1024;SDS011;501;48.214;11.350;2023-04-28T14:56:39;1.30;;;1.20;;
1024;SDS011;501;48.214;11.350;2023-04-28T14:59:05;2.00;;;1.30;;
1024;SDS011;501;48.214;11.350;2023-04-28T15:01:30;1.30;;;1.20;;
1024;SDS011;501;48.214;11.350;2023-04-28T15:03:56;2.70;;;1.50;;
1024;SDS011;501;48.214;11.350;2023-04-28T15:06:22;1.10;;;1.00;;
1024;SDS011;501;48.214;11.350;2023-04-28T15:08:48;1.43;;;1.30;;
1024;SDS011;501;48.214;11.350;2023-04-28T15:11:13;1.70;;;1.60;;
1024;SDS011;501;48.214;11.350;2023-04-28T15:13:39;1.27;;;1.23;;
1024;SDS011;501;48.214;11.350;2023-04-28T15:16:05;1.70;;;1.23;;
1024;SDS011;501;48.214;11.350;2023-04-28T15:18:31;1.33;;;1.23;;
1024;SDS011;501;48.214;11.350;2023-04-28T15:20:56;1.00;;;1.00;;
1024;SDS011;501;48.214;11.350;2023-04-28T15:23:23;1.90;;;1.03;;
1024;SDS011;501;48.214;11.350;2023-04-28T15:25:49;1.37;;;0.90;;
1024;SDS011;501;48.214;11.350;2023-04-28T15:28:17;1.37;;;1.27;;
1024;SDS011;501;48.214;11.350;2023-04-28T15:30:43;0.87;;;0.87;;
1024;SDS011;501;48.214;11.350;2023-04-28T15:33:08;1.30;;;0.87;;
1024;SDS011;501;48.214;11.350;2023-04-28T15:35:40;0.90;;;0.90;;
1024;SDS011;501;48.214;11.350;2023-04-28T15:38:09;1.03;;;0.93;;
1024;SDS011;501;48.214;11.350;2023-04-28T15:40:37;1.30;;;0.90;;
1024;SDS011;501;48.214;11.350;2023-04-28T15:43:04;2.50;;;1.00;;
1024;SDS011;501;48.214;11.350;2023-04-28T15:45:30;1.00;;;1.00;;
1024;SDS011;501;48.214;11.350;2023-04-28T15:47:56;0.90;;;0.90;;
1024;SDS011;501;48.214;11.350;2023-04-28T15:50:22;3.23;;;1.10;;
1024;SDS011;501;48.214;11.350;2023-04-28T15:52:48;1.30;;;1.20;;
1024;SDS011;501;48.214;11.350;2023-04-28T15:55:15;1.27;;;1.17;;